Time;durP1;ratioP1;P1;durP2;ratioP2;P2;SDS_P1;SDS_P2;PMS_P1;PMS_P2;Temp;Humidity;BMP_temperature;BMP_pressure;BME280_temperature;BME280_humidity;BME280_pressure;Samples;Min_cycle;Max_cycle;Signal;HPM_P1;HPM_P2
2023/09/08 00:02:13;;;;;;;7.40;6.57;;;19.10;99.90;;;;;;6180246;23;20013;-69
2023/09/08 00:04:39;;;;;;;9.18;6.80;;;19.00;99.90;;;;;;6180591;23;20116;-69
2023/09/08 00:07:04;;;;;;;11.40;7.18;;;19.00;99.90;;;;;;6180661;23;20028;-69
2023/09/08 00:09:30;;;;;;;8.88;6.70;;;19.00;99.90;;;;;;6180005;23;20456;-70
2023/09/08 00:11:56;;;;;;;8.65;6.28;;;19.00;99.90;;;;;;6180279;23;20021;-70
2023/09/08 00:14:21;;;;;;;10.60;6.80;;;19.00;99.90;;;;;;6180551;23;20028;-70
2023/09/08 00:16:48;;;;;;;8.85;7.43;;;18.90;99.90;;;;;;6180419;23;20619;-70
2023/09/08 00:19:14;;;;;;;13.25;6.75;;;18.90;99.90;;;;;;6129268;23;20025;-69
2023/09/08 00:21:39;;;;;;;11.02;8.10;;;18.90;99.90;;;;;;6180408;23;20017;-70
2023/09/08 00:24:05;;;;;;;13.77;8.15;;;18.90;99.90;;;;;;6153792;23;20020;-70
2023/09/08 00:26:31;;;;;;;11.95;8.68;;;18.90;99.90;;;;;;6128573;23;20032;-70
2023/09/08 00:28:57;;;;;;;11.32;8.55;;;18.80;99.90;;;;;;6153854;23;20021;-70
2023/09/08 00:31:23;;;;;;;13.20;8.48;;;18.80;99.90;;;;;;6128746;23;20025;-70
2023/09/08 00:33:48;;;;;;;10.10;6.78;;;18.80;99.90;;;;;;6180325;23;20021;-69
2023/09/08 00:36:15;;;;;;;12.65;7.40;;;18.70;99.90;;;;;;6180394;23;20017;-70
2023/09/08 00:38:41;;;;;;;10.55;6.82;;;18.70;99.90;;;;;;6180520;23;20052;-70
2023/09/08 00:41:07;;;;;;;10.55;7.00;;;18.60;99.90;;;;;;6180597;23;20028;-70
2023/09/08 00:43:33;;;;;;;12.05;8.15;;;18.60;99.90;;;;;;6180741;23;20029;-70
2023/09/08 00:46:00;;;;;;;9.85;7.10;;;18.60;99.90;;;;;;6180142;23;20017;-69
2023/09/08 00:48:26;;;;;;;9.73;6.95;;;18.60;99.90;;;;;;6180590;23;20013;-70
2023/09/08 00:50:52;;;;;;;11.98;7.65;;;18.50;99.90;;;;;;6180901;23;20016;-70
2023/09/08 00:53:18;;;;;;;8.82;7.03;;;18.50;99.90;;;;;;6180586;23;20017;-70
2023/09/08 00:55:45;;;;;;;11.88;7.20;;;18.50;99.90;;;;;;6180573;23;20104;-70
2023/09/08 00:58:12;;;;;;;9.23;6.53;;;18.50;99.90;;;;;;6180766;23;20063;-69
2023/09/08 01:00:37;;;;;;;12.77;7.63;;;18.40;99.90;;;;;;6153688;23;20021;-69
2023/09/08 01:03:03;;;;;;;10.25;7.45;;;18.50;99.90;;;;;;6180659;23;20052;-69
2023/09/08 01:05:29;;;;;;;9.55;6.90;;;18.40;99.90;;;;;;6180471;23;20019;-69
2023/09/08 01:07:57;;;;;;;9.93;7.40;;;18.40;99.90;;;;;;6153795;23;20051;-70
2023/09/08 01:10:23;;;;;;;10.43;6.35;;;18.40;99.90;;;;;;6180522;23;20605;-69
2023/09/08 01:12:49;;;;;;;10.48;7.07;;;18.40;99.90;;;;;;6155476;23;20043;-69
2023/09/08 01:15:15;;;;;;;11.65;7.05;;;18.40;99.90;;;;;;6155215;23;20052;-69
2023/09/08 01:17:40;;;;;;;9.38;7.13;;;18.30;99.90;;;;;;6181897;23;20025;-70
2023/09/08 01:20:30;;;;;;;9.10;6.30;;;18.30;99.90;;;;;;6131017;23;20021;-70
2023/09/08 01:23:24;;;;;;;10.15;7.32;;;18.30;99.90;;;;;;6181096;23;20013;-69
2023/09/08 01:26:04;;;;;;;9.93;6.88;;;18.20;99.90;;;;;;6181939;23;20021;-69
2023/09/08 01:28:32;;;;;;;9.30;7.07;;;18.20;99.90;;;;;;6154979;23;20100;-70
2023/09/08 01:30:58;;;;;;;8.00;6.90;;;18.20;99.90;;;;;;6155196;23;20418;-70
2023/09/08 01:33:24;;;;;;;10.00;7.43;;;18.10;99.90;;;;;;6181601;23;20322;-70
2023/09/08 01:35:51;;;;;;;9.35;6.97;;;18.10;99.90;;;;;;6181979;23;20056;-69
2023/09/08 01:38:16;;;;;;;10.02;7.00;;;18.10;99.90;;;;;;6155177;23;20413;-70
2023/09/08 01:40:42;;;;;;;11.60;7.43;;;18.10;99.90;;;;;;6181924;23;20017;-69
2023/09/08 01:43:08;;;;;;;9.07;7.43;;;17.90;99.90;;;;;;6181883;23;20039;-70
2023/09/08 01:45:33;;;;;;;9.55;7.28;;;18.00;99.90;;;;;;6181693;23;20032;-69
2023/09/08 01:47:59;;;;;;;9.13;7.75;;;18.00;99.90;;;;;;6130876;23;20241;-69
2023/09/08 01:50:25;;;;;;;12.23;7.93;;;18.00;99.90;;;;;;6155396;23;20048;-70
2023/09/08 01:52:51;;;;;;;11.60;7.72;;;18.00;99.90;;;;;;6181970;23;20068;-70
2023/09/08 01:55:17;;;;;;;10.20;8.55;;;18.00;99.90;;;;;;6131056;23;20020;-70
2023/09/08 01:57:43;;;;;;;10.95;7.53;;;18.00;99.90;;;;;;6181926;23;20366;-70
2023/09/08 02:00:10;;;;;;;13.07;7.68;;;18.10;99.90;;;;;;6181736;23;20024;-70
2023/09/08 02:02:36;;;;;;;8.88;7.32;;;18.00;99.90;;;;;;6181688;23;20017;-70
2023/09/08 02:05:02;;;;;;;11.27;8.15;;;18.10;99.90;;;;;;6181841;23;20032;-70
2023/09/08 02:07:27;;;;;;;10.48;7.97;;;18.00;99.90;;;;;;6181839;23;20024;-70
2023/09/08 02:09:53;;;;;;;10.52;7.82;;;18.00;99.90;;;;;;6181334;23;20120;-70
2023/09/08 02:12:19;;;;;;;9.07;7.60;;;18.00;99.90;;;;;;6181747;23;20025;-70
2023/09/08 02:14:44;;;;;;;11.25;8.07;;;18.00;99.90;;;;;;6154604;23;20076;-70
2023/09/08 02:17:10;;;;;;;8.45;7.38;;;18.00;99.90;;;;;;6155136;23;20075;-70
2023/09/08 02:19:36;;;;;;;11.07;7.70;;;17.90;99.90;;;;;;6154843;23;20060;-70
2023/09/08 02:22:01;;;;;;;10.80;8.20;;;17.90;99.90;;;;;;6181414;23;20013;-70
2023/09/08 02:24:27;;;;;;;11.18;7.53;;;17.90;99.90;;;;;;6181281;23;20325;-70
2023/09/08 02:26:53;;;;;;;10.98;8.57;;;17.80;99.90;;;;;;6180956;23;20397;-70
2023/09/08 02:29:19;;;;;;;11.27;8.07;;;17.90;99.90;;;;;;6154565;23;20021;-70
2023/09/08 02:31:45;;;;;;;10.30;7.65;;;17.90;99.90;;;;;;6181607;23;20074;-71
2023/09/08 02:34:12;;;;;;;9.18;7.47;;;17.80;99.90;;;;;;6181048;23;20021;-70
2023/09/08 02:36:38;;;;;;;11.55;7.40;;;17.80;99.90;;;;;;6154899;23;20033;-70
2023/09/08 02:39:04;;;;;;;9.85;7.85;;;17.80;99.90;;;;;;6130112;23;20091;-70
2023/09/08 02:41:30;;;;;;;13.77;7.95;;;17.70;99.90;;;;;;6181290;23;20489;-70
2023/09/08 02:43:56;;;;;;;10.77;8.10;;;17.70;99.90;;;;;;6181271;23;20032;-70
2023/09/08 02:46:22;;;;;;;8.48;7.60;;;17.70;99.90;;;;;;6181478;23;20025;-70
2023/09/08 02:48:47;;;;;;;11.48;8.02;;;17.70;99.90;;;;;;6181456;23;20021;-70
2023/09/08 02:51:13;;;;;;;10.55;8.10;;;17.70;99.90;;;;;;6180942;23;20370;-70
2023/09/08 02:53:39;;;;;;;15.63;8.18;;;17.70;99.90;;;;;;6180999;23;20029;-70
2023/09/08 02:56:05;;;;;;;11.48;8.50;;;17.70;99.90;;;;;;6181931;23;20029;-70
2023/09/08 02:58:34;;;;;;;11.40;8.00;;;17.60;99.90;;;;;;6180622;23;20021;-70
2023/09/08 03:01:14;;;;;;;12.48;8.32;;;17.50;99.90;;;;;;6181468;23;20052;-70
2023/09/08 03:03:43;;;;;;;14.80;7.53;;;17.60;99.90;;;;;;6154620;23;20075;-70
2023/09/08 03:06:10;;;;;;;14.15;8.93;;;17.50;99.90;;;;;;6181070;23;20032;-70
2023/09/08 03:08:39;;;;;;;12.02;7.20;;;17.50;99.90;;;;;;6129638;23;20025;-70
2023/09/08 03:11:08;;;;;;;12.05;8.20;;;17.50;99.90;;;;;;6154376;23;20073;-69
2023/09/08 03:13:35;;;;;;;11.23;8.45;;;17.50;99.90;;;;;;6180892;23;20021;-70
2023/09/08 03:16:08;;;;;;;10.93;8.68;;;17.40;99.90;;;;;;6180985;23;20048;-70
2023/09/08 03:18:36;;;;;;;14.32;8.45;;;17.40;99.90;;;;;;6180953;23;20021;-70
2023/09/08 03:21:08;;;;;;;10.98;8.85;;;17.40;99.90;;;;;;6154345;23;20024;-69
2023/09/08 03:23:36;;;;;;;13.15;8.60;;;17.40;99.90;;;;;;6180902;23;20020;-70
2023/09/08 03:26:02;;;;;;;11.25;8.82;;;17.40;99.90;;;;;;6153570;23;20051;-70
2023/09/08 03:28:27;;;;;;;12.23;8.65;;;17.40;99.90;;;;;;6180444;23;20017;-70
2023/09/08 03:30:53;;;;;;;13.00;8.85;;;17.40;99.90;;;;;;6181154;23;20025;-70
2023/09/08 03:33:19;;;;;;;12.63;9.48;;;17.40;99.90;;;;;;6153972;23;20346;-69
2023/09/08 03:35:44;;;;;;;13.25;8.95;;;17.40;99.90;;;;;;6180992;23;20017;-69
2023/09/08 03:38:10;;;;;;;13.73;9.25;;;17.40;99.90;;;;;;6154568;23;20036;-70
2023/09/08 03:40:36;;;;;;;11.30;8.90;;;17.40;99.90;;;;;;6154032;23;20029;-70
2023/09/08 03:43:01;;;;;;;12.95;9.23;;;17.40;99.90;;;;;;6180840;23;20386;-70
2023/09/08 03:45:27;;;;;;;9.82;8.48;;;17.40;99.90;;;;;;6180810;23;20024;-70
2023/09/08 03:47:53;;;;;;;13.20;8.90;;;17.30;99.90;;;;;;6181113;23;20083;-70
2023/09/08 03:50:18;;;;;;;13.73;8.63;;;17.30;99.90;;;;;;6154559;23;20357;-69
2023/09/08 03:52:44;;;;;;;12.00;9.20;;;17.30;99.90;;;;;;6129737;23;20036;-69
2023/09/08 03:55:11;;;;;;;10.18;8.38;;;17.40;99.90;;;;;;6154338;23;20021;-70
2023/09/08 03:57:37;;;;;;;13.25;8.55;;;17.30;99.90;;;;;;6129940;23;20334;-70
2023/09/08 04:00:07;;;;;;;14.98;9.05;;;17.30;99.90;;;;;;6154811;23;20049;-70
2023/09/08 04:02:33;;;;;;;10.68;8.32;;;17.30;99.90;;;;;;6154865;23;20020;-70
2023/09/08 04:04:59;;;;;;;11.75;8.95;;;17.30;99.90;;;;;;6181152;23;20357;-70
2023/09/08 04:07:24;;;;;;;11.77;8.93;;;17.30;99.90;;;;;;6155229;23;20017;-70
2023/09/08 04:09:50;;;;;;;10.50;8.77;;;17.20;99.90;;;;;;6181201;23;20123;-70
2023/09/08 04:12:16;;;;;;;18.05;9.23;;;17.20;99.90;;;;;;6130146;23;20454;-70
2023/09/08 04:14:41;;;;;;;12.52;9.18;;;17.20;99.90;;;;;;6154403;23;20028;-70
2023/09/08 04:17:08;;;;;;;12.23;9.68;;;17.20;99.90;;;;;;6154498;23;20025;-70
2023/09/08 04:19:33;;;;;;;18.25;9.90;;;17.20;99.90;;;;;;6154432;23;20025;-70
2023/09/08 04:21:59;;;;;;;12.85;9.50;;;17.20;99.90;;;;;;6180998;23;20028;-70
2023/09/08 04:24:25;;;;;;;11.55;8.63;;;17.20;99.90;;;;;;6154142;23;20017;-70
2023/09/08 04:26:51;;;;;;;12.13;9.27;;;17.10;99.90;;;;;;6180605;23;20025;-70
2023/09/08 04:29:17;;;;;;;11.98;8.88;;;17.10;99.90;;;;;;6181093;23;20029;-70
2023/09/08 04:31:42;;;;;;;11.82;8.85;;;17.10;99.90;;;;;;6181128;23;20700;-70
2023/09/08 04:34:08;;;;;;;13.32;9.30;;;17.10;99.90;;;;;;6154116;23;20017;-70
2023/09/08 04:36:33;;;;;;;14.35;10.13;;;17.10;99.90;;;;;;6154214;23;20029;-70
2023/09/08 04:38:59;;;;;;;14.90;10.07;;;17.10;99.90;;;;;;6154083;23;20092;-70
2023/09/08 04:41:25;;;;;;;11.73;9.48;;;17.00;99.90;;;;;;6154532;23;20040;-70
2023/09/08 04:43:50;;;;;;;11.25;9.55;;;17.00;99.90;;;;;;6154365;23;20048;-70
2023/09/08 04:46:16;;;;;;;12.95;8.82;;;16.90;99.90;;;;;;6155890;23;20029;-70
2023/09/08 04:48:42;;;;;;;12.45;9.60;;;17.00;99.90;;;;;;6182939;23;20020;-70
2023/09/08 04:51:07;;;;;;;14.07;9.57;;;17.00;99.90;;;;;;6182637;23;20357;-70
2023/09/08 04:53:33;;;;;;;12.65;8.80;;;16.90;99.90;;;;;;6131486;23;20025;-70
2023/09/08 04:55:59;;;;;;;13.88;10.00;;;16.80;99.90;;;;;;6182478;23;20025;-68
2023/09/08 04:58:25;;;;;;;17.00;10.02;;;16.80;99.90;;;;;;6155959;23;20025;-70
2023/09/08 05:00:51;;;;;;;15.27;9.80;;;16.80;99.90;;;;;;6182859;23;20091;-69
2023/09/08 05:03:16;;;;;;;13.80;10.27;;;16.80;99.90;;;;;;6182592;23;20017;-70
2023/09/08 05:05:42;;;;;;;14.85;10.00;;;16.80;99.90;;;;;;6156210;23;20032;-69
2023/09/08 05:08:08;;;;;;;12.90;10.00;;;16.70;99.90;;;;;;6155853;23;20487;-70
2023/09/08 05:10:33;;;;;;;16.70;10.07;;;16.80;99.90;;;;;;6182704;23;20031;-69
2023/09/08 05:12:59;;;;;;;12.30;9.93;;;16.80;99.90;;;;;;6182916;23;20017;-69
2023/09/08 05:15:25;;;;;;;13.38;10.20;;;16.70;99.90;;;;;;6182317;23;20021;-70
2023/09/08 05:17:51;;;;;;;16.33;10.90;;;16.80;99.90;;;;;;6131376;23;20202;-70
2023/09/08 05:20:17;;;;;;;17.02;10.68;;;16.80;99.90;;;;;;6131424;23;20017;-69
2023/09/08 05:22:42;;;;;;;15.25;10.27;;;16.80;99.90;;;;;;6155804;23;20020;-69
2023/09/08 05:25:08;;;;;;;14.10;10.38;;;16.80;99.90;;;;;;6155770;23;20025;-69
2023/09/08 05:27:34;;;;;;;14.00;10.45;;;16.80;99.90;;;;;;6182284;23;20029;-70
2023/09/08 05:30:00;;;;;;;12.02;9.55;;;16.80;99.90;;;;;;6182750;23;20481;-70
2023/09/08 05:32:25;;;;;;;12.50;10.10;;;16.90;99.90;;;;;;6155862;23;20036;-70
2023/09/08 05:34:51;;;;;;;16.52;11.10;;;17.00;99.90;;;;;;6182326;23;20039;-69
2023/09/08 05:37:17;;;;;;;18.25;10.52;;;17.00;99.90;;;;;;6182216;23;20416;-69
2023/09/08 05:39:42;;;;;;;12.60;10.13;;;17.10;99.90;;;;;;6182265;23;20025;-69
2023/09/08 05:42:08;;;;;;;16.67;10.60;;;17.20;99.90;;;;;;6182058;23;20112;-70
2023/09/08 05:44:34;;;;;;;12.60;10.43;;;17.30;99.90;;;;;;6131052;23;20024;-69
2023/09/08 05:46:59;;;;;;;11.93;9.95;;;17.30;99.90;;;;;;6155686;23;20088;-69
2023/09/08 05:49:25;;;;;;;13.05;10.07;;;17.30;99.90;;;;;;6182105;23;20084;-69
2023/09/08 05:51:51;;;;;;;15.00;9.90;;;17.40;99.90;;;;;;6181940;23;20048;-70
2023/09/08 05:54:16;;;;;;;15.75;10.15;;;17.40;99.90;;;;;;6182323;23;20013;-70
2023/09/08 05:56:42;;;;;;;14.88;10.85;;;17.50;99.90;;;;;;6155193;23;20017;-70
2023/09/08 05:59:08;;;;;;;14.88;9.63;;;17.50;99.90;;;;;;6155743;23;20028;-70
2023/09/08 06:01:34;;;;;;;14.27;10.43;;;17.60;99.90;;;;;;6182671;23;20017;-70
2023/09/08 06:04:00;;;;;;;13.00;10.73;;;17.60;99.90;;;;;;6181984;23;20033;-70
2023/09/08 06:06:26;;;;;;;12.32;9.48;;;17.70;99.90;;;;;;6182030;23;20048;-70
2023/09/08 06:08:51;;;;;;;13.68;11.52;;;17.70;99.90;;;;;;6155819;23;20079;-71
2023/09/08 06:11:17;;;;;;;15.77;10.43;;;17.80;99.90;;;;;;6182687;23;20342;-70
2023/09/08 06:13:43;;;;;;;15.65;9.98;;;17.80;99.90;;;;;;6182319;23;20021;-70
2023/09/08 06:16:08;;;;;;;14.60;10.30;;;17.90;99.90;;;;;;6182183;23;20111;-70
2023/09/08 06:18:39;;;;;;;15.32;11.18;;;17.90;99.90;;;;;;6155533;23;20100;-70
2023/09/08 06:21:07;;;;;;;12.30;9.52;;;18.10;99.90;;;;;;6181458;23;20032;-70
2023/09/08 06:23:33;;;;;;;13.32;9.93;;;18.10;99.90;;;;;;6181580;23;20025;-70
2023/09/08 06:31:41;;;;;;;12.00;9.80;;;18.30;99.90;;;;;;6217698;22;20408;-68
2023/09/08 06:34:07;;;;;;;15.02;10.60;;;18.50;99.90;;;;;;6211692;23;20020;-70
2023/09/08 06:36:33;;;;;;;11.95;9.35;;;18.50;99.90;;;;;;6211965;23;20029;-70
2023/09/08 06:38:59;;;;;;;12.75;9.75;;;18.60;99.90;;;;;;6212012;23;20028;-70
2023/09/08 06:41:27;;;;;;;11.75;9.55;;;18.60;99.90;;;;;;6211547;23;20017;-70
2023/09/08 06:43:52;;;;;;;12.85;9.48;;;18.70;99.90;;;;;;6211575;23;20024;-70
2023/09/08 06:46:18;;;;;;;14.43;9.10;;;18.80;99.90;;;;;;6212113;23;20016;-70
2023/09/08 06:48:44;;;;;;;17.48;10.02;;;18.80;99.90;;;;;;6211627;23;20103;-69
2023/09/08 06:51:10;;;;;;;12.93;9.32;;;18.90;99.90;;;;;;6212183;23;20139;-70
2023/09/08 06:53:36;;;;;;;10.65;9.10;;;19.00;99.90;;;;;;6212034;23;20020;-70
2023/09/08 06:56:02;;;;;;;12.07;9.45;;;19.00;99.90;;;;;;6211943;23;20448;-70
2023/09/08 06:58:28;;;;;;;13.38;10.40;;;19.10;99.90;;;;;;6185297;23;20036;-71
2023/09/08 07:00:54;;;;;;;13.90;10.25;;;19.10;99.90;;;;;;6212164;23;20028;-70
2023/09/08 07:03:22;;;;;;;13.70;9.88;;;19.20;99.90;;;;;;6211435;23;20008;-70
2023/09/08 07:05:50;;;;;;;15.10;9.93;;;19.20;99.90;;;;;;6184891;23;20024;-70
2023/09/08 07:08:17;;;;;;;11.68;9.65;;;19.30;99.90;;;;;;6184959;23;20068;-71
2023/09/08 07:10:43;;;;;;;11.40;9.32;;;19.30;99.90;;;;;;6184801;23;20112;-70
2023/09/08 07:13:09;;;;;;;12.25;9.50;;;19.40;99.90;;;;;;6185330;23;20056;-71
2023/09/08 07:15:35;;;;;;;13.43;9.02;;;19.50;99.90;;;;;;6212561;23;20017;-70
2023/09/08 07:18:00;;;;;;;11.95;9.18;;;19.50;99.90;;;;;;6211549;23;20017;-71
2023/09/08 07:20:26;;;;;;;12.13;8.90;;;19.60;99.90;;;;;;6184668;23;20357;-70
2023/09/08 07:22:52;;;;;;;12.48;9.63;;;19.70;99.90;;;;;;6211336;23;20024;-70
2023/09/08 07:25:17;;;;;;;15.02;9.40;;;19.70;99.90;;;;;;6210930;23;20021;-70
2023/09/08 07:27:43;;;;;;;12.82;9.00;;;19.80;99.90;;;;;;6184481;23;20033;-70
2023/09/08 07:30:09;;;;;;;13.27;9.55;;;19.80;99.90;;;;;;6211617;23;20028;-70
2023/09/08 07:32:35;;;;;;;13.15;9.60;;;19.90;99.90;;;;;;6178167;23;20027;-70
2023/09/08 07:35:00;;;;;;;12.80;9.10;;;20.00;99.90;;;;;;6241683;23;20051;-70
2023/09/08 07:37:26;;;;;;;13.63;9.30;;;20.00;99.90;;;;;;6214328;23;20020;-70
2023/09/08 07:39:52;;;;;;;15.07;9.40;;;20.10;99.90;;;;;;6241518;23;20345;-70
2023/09/08 07:42:18;;;;;;;12.90;9.77;;;20.20;99.90;;;;;;6241968;23;20016;-70
2023/09/08 07:44:45;;;;;;;16.08;10.13;;;20.20;99.90;;;;;;6214339;23;20024;-70
2023/09/08 07:47:11;;;;;;;11.20;9.55;;;20.20;99.90;;;;;;6214316;23;20063;-70
2023/09/08 07:49:36;;;;;;;13.23;9.68;;;20.30;99.90;;;;;;6241532;23;20074;-70
2023/09/08 07:52:04;;;;;;;11.57;9.27;;;20.30;99.90;;;;;;6214174;23;20023;-70
2023/09/08 07:54:30;;;;;;;20.30;10.85;;;20.30;99.90;;;;;;6241552;23;20047;-70
2023/09/08 07:56:55;;;;;;;14.02;9.38;;;20.40;99.90;;;;;;6214344;23;20095;-71
2023/09/08 07:59:21;;;;;;;14.35;10.85;;;20.40;99.90;;;;;;6241604;23;20064;-70
2023/09/08 08:01:47;;;;;;;14.23;9.70;;;20.50;99.90;;;;;;6241304;23;20020;-70
2023/09/08 08:04:12;;;;;;;11.85;9.55;;;20.50;99.90;;;;;;6241411;23;20024;-71
2023/09/08 08:06:38;;;;;;;16.27;9.90;;;20.60;99.90;;;;;;6241224;23;20118;-70
2023/09/08 08:09:04;;;;;;;13.80;9.70;;;20.70;99.90;;;;;;6213880;23;20026;-71
2023/09/08 08:11:30;;;;;;;13.52;8.85;;;20.80;99.90;;;;;;6241223;23;20023;-70
2023/09/08 08:13:56;;;;;;;14.07;10.00;;;20.80;99.90;;;;;;6241666;23;20056;-70
2023/09/08 08:16:22;;;;;;;11.57;9.35;;;20.90;99.90;;;;;;6240698;23;20013;-70
2023/09/08 08:18:48;;;;;;;12.45;9.63;;;20.90;99.90;;;;;;6214210;23;20069;-70
2023/09/08 08:21:14;;;;;;;13.00;9.30;;;21.10;99.90;;;;;;6242751;23;20087;-70
2023/09/08 08:23:40;;;;;;;11.60;9.20;;;21.10;99.90;;;;;;6215923;23;20405;-70
2023/09/08 08:26:06;;;;;;;13.85;9.65;;;21.10;99.90;;;;;;6243019;23;20464;-70
2023/09/08 08:28:32;;;;;;;15.77;9.73;;;21.30;99.90;;;;;;6242828;23;20027;-70
2023/09/08 08:30:58;;;;;;;13.57;9.38;;;21.40;99.90;;;;;;6215927;23;20028;-70
2023/09/08 08:33:25;;;;;;;12.80;9.00;;;21.40;99.90;;;;;;6213012;23;20036;-70
2023/09/08 08:35:53;;;;;;;13.80;9.45;;;21.50;99.90;;;;;;6212964;23;20020;-70
2023/09/08 08:38:19;;;;;;;13.93;9.00;;;21.60;99.90;;;;;;6212387;23;20058;-70
2023/09/08 08:40:45;;;;;;;11.98;9.63;;;21.70;99.90;;;;;;6212927;23;20015;-70
2023/09/08 08:43:11;;;;;;;11.13;8.85;;;21.70;99.90;;;;;;6212451;23;20020;-70
2023/09/08 08:45:39;;;;;;;12.43;8.70;;;21.90;99.90;;;;;;6212650;23;20028;-70
2023/09/08 08:48:05;;;;;;;12.13;8.02;;;22.00;99.90;;;;;;6185996;23;20024;-70
2023/09/08 08:50:35;;;;;;;10.93;7.72;;;22.00;99.90;;;;;;6185242;23;20178;-71
2023/09/08 08:53:04;;;;;;;8.88;6.78;;;22.00;99.90;;;;;;6185765;23;20047;-70
2023/09/08 08:55:30;;;;;;;9.50;7.15;;;21.90;99.90;;;;;;6185905;23;20103;-70
2023/09/08 08:58:05;;;;;;;7.57;6.25;;;21.90;99.90;;;;;;6161204;23;20021;-70
2023/09/08 09:00:35;;;;;;;8.95;6.70;;;22.10;99.90;;;;;;6212837;23;20056;-70
2023/09/08 09:03:03;;;;;;;9.25;7.10;;;22.30;99.90;;;;;;6185897;23;20028;-70
2023/09/08 09:05:30;;;;;;;12.55;7.45;;;22.40;99.90;;;;;;6186079;23;20060;-70
2023/09/08 09:07:58;;;;;;;8.07;6.82;;;22.60;99.90;;;;;;6212880;23;20020;-70
2023/09/08 09:10:24;;;;;;;8.30;6.20;;;22.70;99.90;;;;;;6185840;23;20020;-70
2023/09/08 09:12:50;;;;;;;8.63;6.45;;;22.70;99.90;;;;;;6212880;23;20456;-70
2023/09/08 09:15:16;;;;;;;8.18;6.68;;;22.90;99.90;;;;;;6185640;23;20611;-70
2023/09/08 09:17:42;;;;;;;7.22;6.25;;;22.70;99.90;;;;;;6212138;23;20452;-70
2023/09/08 09:20:17;;;;;;;7.72;6.22;;;22.90;99.90;;;;;;6185428;23;20024;-70
2023/09/08 09:22:47;;;;;;;9.18;6.05;;;23.10;99.90;;;;;;6185392;23;20414;-70
2023/09/08 09:25:24;;;;;;;8.65;5.78;;;23.30;99.90;;;;;;6212055;23;20031;-69
2023/09/08 09:27:55;;;;;;;11.90;5.28;;;23.30;99.90;;;;;;6184805;23;20448;-70
2023/09/08 09:30:22;;;;;;;10.50;5.63;;;23.50;99.90;;;;;;6211912;23;20027;-70
2023/09/08 09:32:49;;;;;;;12.45;5.32;;;23.40;99.90;;;;;;6181482;23;20400;-70
2023/09/08 09:35:16;;;;;;;9.23;5.57;;;23.30;99.90;;;;;;6242208;23;20020;-70
2023/09/08 09:37:42;;;;;;;7.90;5.25;;;23.40;99.90;;;;;;6215187;23;20384;-70
2023/09/08 09:40:10;;;;;;;8.43;5.45;;;23.40;99.90;;;;;;6242473;23;20021;-70
2023/09/08 09:42:40;;;;;;;9.10;6.10;;;23.60;99.90;;;;;;6241981;23;20078;-70
2023/09/08 09:45:06;;;;;;;8.82;5.57;;;23.60;99.90;;;;;;6242428;23;20016;-70
2023/09/08 09:47:33;;;;;;;6.40;5.07;;;23.80;99.90;;;;;;6242432;23;20036;-70
2023/09/08 09:50:00;;;;;;;7.25;4.95;;;23.80;99.90;;;;;;6215240;23;20468;-70
2023/09/08 09:52:31;;;;;;;11.10;5.90;;;24.00;99.90;;;;;;6242705;23;20012;-70
2023/09/08 09:54:59;;;;;;;9.13;5.17;;;24.10;99.90;;;;;;6242514;23;20498;-70
2023/09/08 09:57:26;;;;;;;9.90;5.28;;;24.00;99.90;;;;;;6241031;23;20024;-70
2023/09/08 09:59:54;;;;;;;7.75;5.18;;;24.10;99.90;;;;;;6214694;23;20031;-70
2023/09/08 10:02:21;;;;;;;7.85;5.05;;;24.20;99.90;;;;;;6242171;23;20340;-70
2023/09/08 10:04:51;;;;;;;7.00;5.32;;;24.20;99.90;;;;;;6214968;23;20361;-70
2023/09/08 10:07:18;;;;;;;8.10;4.90;;;24.50;99.90;;;;;;6214985;23;20050;-70
2023/09/08 10:09:43;;;;;;;7.78;5.00;;;24.50;99.90;;;;;;6214605;23;20479;-70
2023/09/08 10:12:15;;;;;;;11.73;6.00;;;24.60;99.90;;;;;;6189738;23;20032;-70
2023/09/08 10:14:41;;;;;;;7.57;5.38;;;24.70;99.90;;;;;;6241804;23;20046;-71
2023/09/08 10:17:17;;;;;;;9.45;5.10;;;24.60;99.90;;;;;;6241807;23;20020;-70
2023/09/08 10:19:51;;;;;;;6.55;4.90;;;24.60;99.90;;;;;;6214748;23;20475;-70
2023/09/08 10:22:21;;;;;;;9.57;4.57;;;24.60;99.90;;;;;;6241563;23;20020;-70
2023/09/08 10:24:49;;;;;;;7.55;5.38;;;24.80;99.90;;;;;;6241559;23;20016;-71
2023/09/08 10:27:18;;;;;;;7.30;4.30;;;24.80;99.90;;;;;;6214370;23;20023;-70
2023/09/08 10:29:45;;;;;;;6.45;4.80;;;24.80;99.90;;;;;;6214711;23;20051;-70
2023/09/08 10:32:11;;;;;;;6.25;4.32;;;24.80;99.90;;;;;;6241660;23;20024;-70
2023/09/08 10:34:38;;;;;;;6.55;4.78;;;24.90;99.90;;;;;;6214598;23;20048;-70
2023/09/08 10:37:21;;;;;;;6.82;4.45;;;25.00;99.90;;;;;;6214441;23;20024;-70
2023/09/08 10:39:47;;;;;;;6.70;4.45;;;25.10;99.90;;;;;;6241508;23;20467;-70
2023/09/08 10:42:19;;;;;;;7.63;4.60;;;25.20;99.90;;;;;;6241732;23;20020;-70
2023/09/08 10:44:51;;;;;;;8.57;4.32;;;25.20;99.90;;;;;;6214292;23;20024;-71
2023/09/08 10:47:22;;;;;;;11.60;4.72;;;25.30;99.90;;;;;;6241843;23;20016;-70
2023/09/08 10:49:50;;;;;;;6.32;4.55;;;25.30;99.90;;;;;;6214508;23;20051;-71
2023/09/08 10:52:16;;;;;;;7.63;4.22;;;25.20;99.90;;;;;;6214309;23;20570;-70
2023/09/08 10:54:43;;;;;;;5.47;4.40;;;25.40;99.90;;;;;;6214260;23;20016;-71
2023/09/08 10:57:17;;;;;;;6.30;4.35;;;25.50;99.90;;;;;;6214316;23;20127;-70
2023/09/08 11:00:12;;;;;;;5.68;4.30;;;25.60;99.90;;;;;;6241565;23;20012;-70
2023/09/08 11:02:42;;;;;;;8.40;4.53;;;25.60;99.90;;;;;;6241327;23;20012;-70
2023/09/08 11:05:15;;;;;;;5.57;4.57;;;25.80;99.90;;;;;;6241585;23;20066;-70
2023/09/08 11:07:43;;;;;;;6.50;4.38;;;25.90;99.90;;;;;;6241846;23;20445;-71
2023/09/08 11:10:10;;;;;;;5.07;4.25;;;25.80;99.90;;;;;;6241454;23;20051;-70
2023/09/08 11:12:36;;;;;;;7.53;4.13;;;25.70;99.90;;;;;;6243679;23;20107;-70
2023/09/08 11:15:08;;;;;;;6.35;4.18;;;25.70;99.90;;;;;;6244403;23;20047;-71
2023/09/08 11:17:36;;;;;;;8.55;4.43;;;25.90;99.90;;;;;;6217297;23;20418;-70
2023/09/08 11:20:10;;;;;;;6.85;3.97;;;25.90;99.90;;;;;;6215825;23;20020;-70
2023/09/08 11:22:39;;;;;;;5.32;4.50;;;25.90;99.90;;;;;;6241871;23;20047;-71
2023/09/08 11:25:10;;;;;;;7.38;4.50;;;25.90;99.90;;;;;;6240737;23;20017;-71
2023/09/08 11:27:36;;;;;;;9.33;4.33;;;25.90;99.90;;;;;;6241385;23;20418;-70
2023/09/08 11:30:04;;;;;;;5.07;3.88;;;25.90;99.90;;;;;;6214426;23;20019;-70
2023/09/08 11:32:34;;;;;;;8.43;3.88;;;26.10;99.90;;;;;;6240880;23;20464;-70
2023/09/08 11:35:13;;;;;;;7.20;4.07;;;26.20;99.90;;;;;;6214334;23;20528;-71
2023/09/08 11:37:41;;;;;;;4.55;3.70;;;26.30;99.90;;;;;;6241442;23;20023;-71
2023/09/08 11:40:14;;;;;;;8.18;4.45;;;26.20;99.90;;;;;;6241079;23;20055;-70
2023/09/08 11:42:44;;;;;;;6.72;4.25;;;26.20;99.90;;;;;;6213927;23;20444;-70
2023/09/08 11:45:14;;;;;;;5.75;4.25;;;26.20;99.90;;;;;;6214239;23;20012;-70
2023/09/08 11:47:43;;;;;;;10.48;4.93;;;26.30;99.90;;;;;;6241580;23;20016;-71
2023/09/08 11:50:15;;;;;;;5.63;4.28;;;26.30;99.90;;;;;;6241259;23;20495;-70
2023/09/08 11:52:52;;;;;;;7.50;3.55;;;26.40;99.90;;;;;;6241550;23;20340;-71
2023/09/08 11:55:19;;;;;;;5.95;4.30;;;26.40;99.90;;;;;;6241020;23;20051;-70
2023/09/08 11:57:50;;;;;;;6.30;4.10;;;26.50;99.90;;;;;;6241128;23;20020;-71
2023/09/08 12:00:19;;;;;;;7.30;4.50;;;26.60;99.90;;;;;;6241407;23;20097;-70
2023/09/08 12:02:45;;;;;;;7.47;3.97;;;26.60;99.90;;;;;;6240955;23;20330;-70
2023/09/08 12:05:12;;;;;;;6.05;4.43;;;26.50;99.90;;;;;;6241360;23;20031;-70
2023/09/08 12:07:38;;;;;;;4.60;3.65;;;26.40;99.90;;;;;;6213590;23;20020;-71
2023/09/08 12:10:13;;;;;;;5.70;3.97;;;26.40;99.90;;;;;;6241078;23;20022;-70
2023/09/08 12:12:54;;;;;;;6.00;4.10;;;26.60;99.90;;;;;;6241075;23;20020;-70
2023/09/08 12:15:37;;;;;;;6.38;3.90;;;26.60;99.90;;;;;;6240775;23;20020;-70
2023/09/08 12:18:07;;;;;;;5.40;4.57;;;26.60;99.90;;;;;;6241045;23;20024;-70
2023/09/08 12:20:34;;;;;;;6.65;4.25;;;26.70;99.90;;;;;;6241075;23;20027;-70
2023/09/08 12:23:02;;;;;;;6.50;4.00;;;26.70;99.90;;;;;;6240713;23;20120;-70
2023/09/08 12:25:31;;;;;;;8.40;4.38;;;26.60;99.90;;;;;;6240300;23;20020;-71
2023/09/08 12:27:57;;;;;;;6.88;4.25;;;26.80;99.90;;;;;;6213831;23;20047;-70
2023/09/08 12:30:29;;;;;;;5.10;3.92;;;26.70;99.90;;;;;;6214071;23;20024;-71
2023/09/08 12:32:58;;;;;;;8.32;4.38;;;26.80;99.90;;;;;;6213708;23;20024;-70
2023/09/08 12:35:24;;;;;;;8.00;4.70;;;26.80;99.90;;;;;;6213610;23;20020;-70
2023/09/08 12:38:01;;;;;;;5.80;4.05;;;26.90;99.90;;;;;;6240517;23;20344;-71
2023/09/08 12:40:28;;;;;;;6.57;4.32;;;27.00;99.90;;;;;;6241120;23;20019;-70
2023/09/08 12:42:55;;;;;;;6.90;4.28;;;27.00;99.90;;;;;;6240492;23;20452;-70
2023/09/08 12:45:25;;;;;;;7.70;4.28;;;27.10;99.90;;;;;;6240927;23;20020;-70